createdAt,value
2019-01-30T00:00:40.900Z,34.77
2019-01-30T00:05:42.673Z,30.67
2019-01-30T00:10:44.449Z,37.00
2019-01-30T00:15:55.811Z,34.47
2019-01-30T00:20:50.633Z,31.87
2019-01-30T00:25:52.358Z,33.97
2019-01-30T00:30:54.150Z,38.40
2019-01-30T00:35:55.924Z,47.37
2019-01-30T00:40:57.706Z,38.03
2019-01-30T00:45:59.478Z,39.27
2019-01-30T00:51:01.261Z,32.47
2019-01-30T00:56:03.544Z,44.03
2019-01-30T01:01:05.426Z,36.13
2019-01-30T01:06:07.730Z,30.50
2019-01-30T01:11:09.510Z,34.17
2019-01-30T01:16:11.381Z,33.40
2019-01-30T01:21:13.158Z,30.43
2019-01-30T01:26:15.035Z,30.23
2019-01-30T01:31:16.831Z,32.40
2019-01-30T01:36:18.583Z,35.63
2019-01-30T01:41:20.362Z,37.60
2019-01-30T01:46:22.165Z,44.70
2019-01-30T01:51:23.936Z,36.40
2019-01-30T01:56:27.040Z,35.60
2019-01-30T02:01:28.815Z,27.43
2019-01-30T02:06:30.697Z,35.80
2019-01-30T02:11:32.570Z,37.70
2019-01-30T02:16:34.442Z,38.67
2019-01-30T02:21:36.192Z,44.83
2019-01-30T02:26:38.006Z,33.10
2019-01-30T02:31:39.893Z,43.37
2019-01-30T02:36:43.511Z,28.33
2019-01-30T02:41:45.906Z,43.97
2019-01-30T02:46:47.783Z,44.83
2019-01-30T02:51:50.063Z,47.47
2019-01-30T02:56:52.761Z,39.50
2019-01-30T03:01:56.379Z,28.80
2019-01-30T03:06:58.256Z,45.20
2019-01-30T03:12:00.140Z,44.27
2019-01-30T03:17:01.910Z,34.77
2019-01-30T03:22:04.203Z,35.07
2019-01-30T03:27:05.976Z,38.03
2019-01-30T03:32:07.753Z,40.50
2019-01-30T03:37:10.449Z,44.63
2019-01-30T03:42:12.233Z,52.93
2019-01-30T03:47:14.356Z,37.20
2019-01-30T03:52:16.034Z,37.07
2019-01-30T03:57:17.870Z,37.87
2019-01-30T04:02:19.645Z,54.90
2019-01-30T04:07:21.450Z,39.10
2019-01-30T04:12:23.255Z,37.30
2019-01-30T04:17:25.055Z,34.83
2019-01-30T04:22:26.951Z,44.60
2019-01-30T04:27:29.155Z,32.60
2019-01-30T04:32:31.354Z,26.30
2019-01-30T04:37:33.131Z,40.17
2019-01-30T04:42:41.863Z,28.13
2019-01-30T04:47:44.789Z,32.00
2019-01-30T04:52:46.450Z,34.53
2019-01-30T04:57:48.714Z,41.47
2019-01-30T05:02:50.480Z,28.30
2019-01-30T05:07:52.273Z,38.60
2019-01-30T05:12:54.157Z,36.50
2019-01-30T05:17:56.029Z,39.70
2019-01-30T05:22:57.895Z,34.67
2019-01-30T05:27:59.658Z,33.83
2019-01-30T05:33:01.433Z,40.77
2019-01-30T05:38:03.395Z,37.27
2019-01-30T05:43:05.230Z,33.40
2019-01-30T05:48:07.010Z,27.50
2019-01-30T05:53:09.988Z,28.73
2019-01-30T05:58:12.068Z,37.10
2019-01-30T06:03:14.148Z,35.53
2019-01-30T06:08:16.025Z,30.53
2019-01-30T06:13:18.222Z,24.17
2019-01-30T06:18:20.094Z,41.83
2019-01-30T06:23:21.968Z,25.40
2019-01-30T06:28:28.668Z,35.70
2019-01-30T06:33:29.020Z,26.47
2019-01-30T06:38:30.779Z,30.23
2019-01-30T06:43:32.653Z,30.50
2019-01-30T06:48:34.735Z,29.57
2019-01-30T06:53:36.414Z,40.60
2019-01-30T06:58:39.520Z,35.80
2019-01-30T07:03:41.677Z,30.03
2019-01-30T07:08:43.425Z,40.23
2019-01-30T07:13:45.264Z,24.90
2019-01-30T07:18:47.734Z,27.90
2019-01-30T07:23:49.558Z,35.70
2019-01-30T07:28:51.445Z,29.77
2019-01-30T07:33:53.324Z,35.93
2019-01-30T07:38:55.541Z,41.60
2019-01-30T07:43:57.332Z,17.77
2019-01-30T07:49:02.488Z,30.73
2019-01-30T07:54:04.256Z,34.80
2019-01-30T07:59:08.082Z,27.90
2019-01-30T08:04:09.957Z,29.30
2019-01-30T08:09:12.025Z,26.27
2019-01-30T08:14:13.819Z,28.67
2019-01-30T08:19:16.020Z,25.07
2019-01-30T08:24:18.392Z,24.77
2019-01-30T08:29:20.355Z,20.93
2019-01-30T08:34:22.246Z,20.40
2019-01-30T08:39:26.055Z,23.63
2019-01-30T08:44:32.340Z,33.87
2019-01-30T08:49:34.744Z,23.70
2019-01-30T08:54:36.503Z,28.50
2019-01-30T08:59:38.558Z,29.13
2019-01-30T09:04:40.432Z,23.47
2019-01-30T09:09:42.310Z,21.50
2019-01-30T09:14:45.907Z,23.93
2019-01-30T09:19:48.598Z,29.23
2019-01-30T09:24:50.435Z,24.87
2019-01-30T09:29:52.179Z,28.17
2019-01-30T09:34:54.063Z,30.77
2019-01-30T09:40:04.053Z,20.83
2019-01-30T09:45:12.248Z,29.03
2019-01-30T09:50:16.975Z,19.57
2019-01-30T09:55:19.865Z,18.63
2019-01-30T10:00:27.200Z,10.27
2019-01-30T10:05:28.980Z,30.10
2019-01-30T10:10:34.054Z,19.40
2019-01-30T10:15:37.815Z,18.03
2019-01-30T10:20:42.540Z,19.70
2019-01-30T10:25:44.314Z,19.50
2019-01-30T10:30:46.566Z,14.77
2019-01-30T10:35:48.778Z,21.07
2019-01-30T10:40:51.009Z,15.90
2019-01-30T10:45:52.814Z,16.77
2019-01-30T10:50:55.082Z,19.77
2019-01-30T10:55:56.828Z,20.53
2019-01-30T11:00:59.964Z,14.77
2019-01-30T11:06:01.813Z,25.13
2019-01-30T11:11:08.010Z,29.43
2019-01-30T11:16:07.297Z,13.40
2019-01-30T11:21:09.014Z,18.83
2019-01-30T11:26:10.797Z,16.53
2019-01-30T11:31:12.601Z,22.03
2019-01-30T11:36:14.408Z,13.23
2019-01-30T11:41:16.214Z,12.57
2019-01-30T11:46:18.011Z,16.80
2019-01-30T11:51:19.838Z,14.07
2019-01-30T11:56:21.622Z,10.77
2019-01-30T12:01:24.650Z,15.80
2019-01-30T12:06:26.862Z,16.23
2019-01-30T12:11:28.671Z,26.30
2019-01-30T12:16:30.528Z,7.90
2019-01-30T12:21:32.375Z,13.63
2019-01-30T12:26:34.285Z,18.10
2019-01-30T12:31:36.041Z,14.80
2019-01-30T12:36:37.884Z,17.03
2019-01-30T12:41:39.703Z,18.20
2019-01-30T12:46:41.502Z,11.30
2019-01-30T12:51:43.268Z,14.47
2019-01-30T12:56:44.991Z,20.67
2019-01-30T13:01:46.897Z,11.47
2019-01-30T13:06:48.908Z,18.23
2019-01-30T13:11:50.710Z,13.10
2019-01-30T13:16:59.490Z,19.47
2019-01-30T13:22:01.428Z,14.83
2019-01-30T13:27:08.209Z,13.07
2019-01-30T13:32:10.353Z,12.60
2019-01-30T13:37:12.049Z,11.50
2019-01-30T13:42:14.471Z,11.87
2019-01-30T13:47:16.257Z,15.73
2019-01-30T13:52:18.635Z,16.67
2019-01-30T13:57:20.804Z,16.90
2019-01-30T14:02:23.043Z,14.80
2019-01-30T14:07:24.818Z,11.53
2019-01-30T14:12:26.628Z,16.90
2019-01-30T14:17:28.398Z,26.80
2019-01-30T14:22:30.580Z,11.37
2019-01-30T14:27:32.953Z,17.43
2019-01-30T14:32:34.817Z,15.27
2019-01-30T14:37:36.696Z,12.83
2019-01-30T14:42:38.477Z,13.60
2019-01-30T14:47:40.292Z,10.33
2019-01-30T14:52:44.238Z,13.00
2019-01-30T14:57:46.646Z,9.20
2019-01-30T15:02:50.109Z,10.63
2019-01-30T15:07:51.914Z,11.50
2019-01-30T15:12:53.736Z,11.60
2019-01-30T15:17:55.716Z,9.33
2019-01-30T15:22:58.503Z,9.00
2019-01-30T15:28:00.759Z,9.67
2019-01-30T15:33:03.117Z,17.53
2019-01-30T15:38:06.593Z,8.87
2019-01-30T15:43:08.760Z,11.27
2019-01-30T15:48:10.817Z,10.23
2019-01-30T15:53:13.700Z,26.10
2019-01-30T15:58:15.899Z,18.10
2019-01-30T16:03:17.736Z,13.00
2019-01-30T16:08:26.001Z,14.20
2019-01-30T16:13:28.215Z,8.00
2019-01-30T16:18:29.986Z,9.00
2019-01-30T16:23:31.909Z,9.03
2019-01-30T16:28:34.077Z,9.07
2019-01-30T16:33:35.954Z,7.40
2019-01-30T16:38:37.728Z,12.13
2019-01-30T16:43:39.518Z,25.90
2019-01-30T16:48:41.276Z,7.80
2019-01-30T16:53:44.870Z,13.57
2019-01-30T16:58:48.481Z,7.83
2019-01-30T17:03:52.762Z,28.73
2019-01-30T17:08:54.607Z,13.87
2019-01-30T17:13:56.384Z,22.33
2019-01-30T17:18:58.134Z,20.40
2019-01-30T17:23:59.958Z,17.37
2019-01-30T17:29:02.018Z,24.13
2019-01-30T17:34:03.914Z,27.47
2019-01-30T17:39:07.945Z,11.87
2019-01-30T17:44:12.709Z,15.07
2019-01-30T17:49:14.159Z,20.30
2019-01-30T17:54:18.186Z,12.27
2019-01-30T17:59:19.968Z,11.10
2019-01-30T18:04:22.149Z,11.80
2019-01-30T18:09:24.032Z,18.70
2019-01-30T18:14:27.195Z,8.37
2019-01-30T18:19:31.115Z,28.73
2019-01-30T18:24:34.344Z,33.03
2019-01-30T18:29:38.912Z,30.30
2019-01-30T18:34:40.730Z,14.80
2019-01-30T18:39:49.683Z,23.23
2019-01-30T18:44:53.127Z,20.33
2019-01-30T18:49:54.931Z,23.20
2019-01-30T18:54:56.816Z,23.77
2019-01-30T18:59:58.514Z,9.00
2019-01-30T19:05:02.358Z,22.10
2019-01-30T19:10:10.298Z,21.43
2019-01-30T19:15:18.873Z,18.57
2019-01-30T19:20:26.811Z,15.23
2019-01-30T19:25:28.706Z,25.87
2019-01-30T19:30:33.606Z,14.40
2019-01-30T19:35:35.898Z,14.80
2019-01-30T19:40:37.665Z,26.50
2019-01-30T19:45:39.449Z,15.13
2019-01-30T19:50:41.635Z,19.10
2019-01-30T19:55:43.595Z,17.13
2019-01-30T20:00:45.886Z,23.57
2019-01-30T20:05:49.691Z,15.63
2019-01-30T20:10:51.926Z,26.67
2019-01-30T20:15:54.138Z,26.30
2019-01-30T20:20:56.150Z,14.93
2019-01-30T20:25:58.351Z,18.33
2019-01-30T20:31:01.338Z,12.50
2019-01-30T20:36:03.756Z,16.00
2019-01-30T20:41:08.021Z,12.03
2019-01-30T20:46:09.952Z,21.27
2019-01-30T20:51:11.998Z,14.40
2019-01-30T20:56:13.889Z,23.50
2019-01-30T21:01:15.659Z,20.00
2019-01-30T21:06:17.979Z,22.07
2019-01-30T21:11:19.754Z,17.70
2019-01-30T21:16:21.552Z,19.17
2019-01-30T21:21:23.370Z,23.20
2019-01-30T21:26:25.973Z,11.53
2019-01-30T21:31:28.058Z,14.67
2019-01-30T21:36:29.822Z,23.27
2019-01-30T21:41:31.649Z,17.60
2019-01-30T21:46:33.467Z,24.50
2019-01-30T21:51:35.244Z,15.80
2019-01-30T21:56:37.108Z,34.63
2019-01-30T22:01:38.898Z,16.60
2019-01-30T22:06:40.781Z,22.00
2019-01-30T22:11:42.548Z,21.87
2019-01-30T22:16:44.436Z,13.60
2019-01-30T22:21:46.537Z,33.93
2019-01-30T22:26:48.334Z,19.70
2019-01-30T22:31:50.125Z,28.33
2019-01-30T22:36:51.914Z,22.10
2019-01-30T22:41:53.698Z,33.07
2019-01-30T22:46:55.869Z,32.13
2019-01-30T22:51:57.735Z,16.17
2019-01-30T22:56:59.510Z,25.93
2019-01-30T23:02:02.169Z,22.13
2019-01-30T23:07:07.726Z,27.30
2019-01-30T23:12:28.160Z,20.77
2019-01-30T23:17:39.680Z,13.97
2019-01-30T23:23:02.894Z,21.33
2019-01-30T23:28:32.654Z,21.97
2019-01-30T23:33:47.333Z,24.30
2019-01-30T23:39:26.243Z,18.47
2019-01-30T23:44:37.787Z,16.83
2019-01-30T23:49:55.147Z,18.90
2019-01-30T23:55:04.503Z,20.60
